Reynoldsville, Illinois
Current Conditions -  °F | °C
As of 12:53 AM on Saturday 29 Nov 2014 (Local Time) from KCGI Reporting Station
Clear Clear  
Wind Chill: 38°   Ceiling: Unl
Heat Index: 43°   Visibility: 10mi
Dew Point: 31°   Wind: 8mph
Humidity: 62%   Direction: 180°S
Pressure: 30"   Gusts: NA
Location:  37.4256°N, 89.3457°W
Report Text: KCGI 290653Z AUTO 18007KT 10SM CLR 06/M01 A3000 RMK AO2 SLP159 T00611006 TSNO
Loading
Personal Weather Stations






























Interactive Weather Map New forecast layout! Learn more

10-Day Weather Forecast

Advertisements
Track Severe Weather on mobile